createdAt,value
2019-02-12T00:01:04.483Z,77.32
2019-02-12T00:03:34.955Z,78.42
2019-02-12T00:06:05.645Z,78.50
2019-02-12T00:08:35.986Z,78.86
2019-02-12T00:11:06.260Z,78.54
2019-02-12T00:13:37.098Z,79.36
2019-02-12T00:16:08.332Z,79.28
2019-02-12T00:19:14.589Z,78.71
2019-02-12T00:21:44.970Z,79.30
2019-02-12T00:24:15.588Z,79.10
2019-02-12T00:26:45.885Z,78.27
2019-02-12T00:29:16.615Z,78.72
2019-02-12T00:31:47.188Z,78.76
2019-02-12T00:34:17.793Z,78.30
2019-02-12T00:36:48.456Z,78.95
2019-02-12T00:39:18.790Z,79.15
2019-02-12T00:41:49.420Z,77.84
2019-02-12T00:44:19.952Z,77.92
2019-02-12T00:46:50.214Z,78.43
2019-02-12T00:49:21.863Z,78.12
2019-02-12T00:51:52.417Z,77.75
2019-02-12T00:54:24.142Z,77.05
2019-02-12T00:56:56.187Z,77.99
2019-02-12T00:59:26.598Z,76.16
2019-02-12T01:01:56.842Z,76.59
2019-02-12T01:04:27.442Z,77.76
2019-02-12T01:06:58.196Z,76.73
2019-02-12T01:09:28.689Z,75.81
2019-02-12T01:11:58.970Z,75.04
2019-02-12T01:14:29.608Z,75.50
2019-02-12T01:16:59.968Z,75.63
2019-02-12T01:19:30.512Z,76.02
2019-02-12T01:22:01.062Z,75.85
2019-02-12T01:24:32.472Z,75.10
2019-02-12T01:27:02.745Z,74.56
2019-02-12T01:29:33.585Z,73.73
2019-02-12T01:32:03.969Z,74.60
2019-02-12T01:34:34.498Z,73.81
2019-02-12T01:37:05.166Z,73.42
2019-02-12T01:39:35.844Z,72.76
2019-02-12T01:42:06.113Z,73.42
2019-02-12T01:44:36.660Z,71.73
2019-02-12T01:47:07.016Z,73.21
2019-02-12T01:49:37.796Z,72.26
2019-02-12T01:52:08.541Z,72.16
2019-02-12T01:54:39.053Z,70.60
2019-02-12T01:57:09.720Z,70.46
2019-02-12T01:59:40.384Z,70.57
2019-02-12T02:02:10.625Z,71.12
2019-02-12T02:04:41.036Z,72.26
2019-02-12T02:07:11.641Z,69.96
2019-02-12T02:09:42.152Z,69.87
2019-02-12T02:12:12.421Z,69.28
2019-02-12T02:14:42.919Z,69.88
2019-02-12T02:17:13.550Z,70.70
2019-02-12T02:19:44.221Z,69.34
2019-02-12T02:22:14.604Z,70.82
2019-02-12T02:24:45.221Z,69.77
2019-02-12T02:27:15.561Z,69.09
2019-02-12T02:29:46.033Z,71.14
2019-02-12T02:32:16.394Z,70.19
2019-02-12T02:34:47.181Z,69.61
2019-02-12T02:37:17.434Z,70.09
2019-02-12T02:39:47.982Z,69.74
2019-02-12T02:42:18.741Z,69.78
2019-02-12T02:44:49.201Z,69.00
2019-02-12T02:47:19.807Z,69.15
2019-02-12T02:49:50.444Z,68.89
2019-02-12T02:52:20.743Z,69.42
2019-02-12T02:54:52.438Z,69.27
2019-02-12T02:57:22.676Z,70.10
2019-02-12T02:59:53.187Z,70.16
2019-02-12T03:02:23.814Z,69.34
2019-02-12T03:04:54.360Z,68.99
2019-02-12T03:07:24.601Z,68.76
2019-02-12T03:09:55.231Z,68.91
2019-02-12T03:12:25.816Z,68.85
2019-02-12T03:14:56.220Z,68.85
2019-02-12T03:17:26.891Z,68.20
2019-02-12T03:19:57.197Z,67.87
2019-02-12T03:22:27.833Z,68.00
2019-02-12T03:24:58.173Z,68.50
2019-02-12T03:27:28.517Z,68.22
2019-02-12T03:29:59.002Z,68.31
2019-02-12T03:32:29.693Z,68.05
2019-02-12T03:35:00.326Z,68.09
2019-02-12T03:37:30.905Z,67.16
2019-02-12T03:40:01.477Z,66.76
2019-02-12T03:42:31.777Z,66.37
2019-02-12T03:45:02.320Z,65.69
2019-02-12T03:47:33.953Z,64.38
2019-02-12T03:50:04.357Z,64.64
2019-02-12T03:52:34.889Z,64.54
2019-02-12T03:55:06.255Z,64.58
2019-02-12T03:57:36.612Z,64.55
2019-02-12T04:00:08.660Z,64.97
2019-02-12T04:02:40.519Z,65.04
2019-02-12T04:05:10.956Z,65.33
2019-02-12T04:07:41.746Z,65.74
2019-02-12T04:10:12.012Z,65.69
2019-02-12T04:12:42.604Z,65.17
2019-02-12T04:15:13.361Z,66.15
2019-02-12T04:17:43.743Z,66.53
2019-02-12T04:20:14.060Z,67.26
2019-02-12T04:22:44.568Z,67.39
2019-02-12T04:25:14.866Z,67.27
2019-02-12T04:27:45.237Z,66.91
2019-02-12T04:30:15.603Z,66.76
2019-02-12T04:32:45.875Z,66.86
2019-02-12T04:35:16.379Z,67.26
2019-02-12T04:37:46.690Z,66.57
2019-02-12T04:40:16.948Z,66.22
2019-02-12T04:42:47.739Z,66.28
2019-02-12T04:45:18.278Z,64.97
2019-02-12T04:47:48.583Z,64.97
2019-02-12T04:50:18.943Z,65.61
2019-02-12T04:52:49.310Z,65.68
2019-02-12T04:55:20.580Z,65.90
2019-02-12T04:57:51.028Z,65.78
2019-02-12T05:00:22.314Z,66.39
2019-02-12T05:02:52.967Z,66.42
2019-02-12T05:05:23.401Z,65.91
2019-02-12T05:07:53.967Z,66.50
2019-02-12T05:10:25.095Z,66.90
2019-02-12T05:12:55.833Z,66.23
2019-02-12T05:15:26.312Z,65.43
2019-02-12T05:17:56.992Z,65.70
2019-02-12T05:20:27.760Z,66.24
2019-02-12T05:22:58.277Z,65.30
2019-02-12T05:25:28.639Z,65.90
2019-02-12T05:27:59.154Z,66.64
2019-02-12T05:30:29.516Z,67.32
2019-02-12T05:32:59.776Z,66.95
2019-02-12T05:35:30.637Z,66.49
2019-02-12T05:38:00.906Z,66.32
2019-02-12T05:40:31.306Z,65.55
2019-02-12T05:43:01.913Z,66.11
2019-02-12T05:45:32.423Z,66.58
2019-02-12T05:48:02.693Z,66.94
2019-02-12T05:50:33.083Z,67.12
2019-02-12T05:53:03.510Z,66.10
2019-02-12T05:55:33.788Z,65.99
2019-02-12T05:58:04.596Z,66.21
2019-02-12T06:00:34.966Z,66.02
2019-02-12T06:03:05.752Z,65.43
2019-02-12T06:05:36.283Z,65.38
2019-02-12T06:08:06.743Z,64.79
2019-02-12T06:10:38.485Z,64.69
2019-02-12T06:13:09.181Z,64.91
2019-02-12T06:15:39.566Z,64.95
2019-02-12T06:18:10.186Z,66.41
2019-02-12T06:20:40.724Z,66.68
2019-02-12T06:23:11.029Z,66.07
2019-02-12T06:25:41.394Z,65.21
2019-02-12T06:28:12.003Z,65.72
2019-02-12T06:30:43.901Z,66.22
2019-02-12T06:33:14.874Z,66.10
2019-02-12T06:35:45.201Z,65.36
2019-02-12T06:38:15.936Z,64.96
2019-02-12T06:40:46.766Z,65.65
2019-02-12T06:43:17.037Z,65.41
2019-02-12T06:45:47.435Z,65.87
2019-02-12T06:48:18.068Z,65.40
2019-02-12T06:50:48.380Z,64.73
2019-02-12T06:53:18.672Z,65.09
2019-02-12T06:55:49.527Z,64.57
2019-02-12T06:58:19.792Z,64.49
2019-02-12T07:00:50.367Z,63.68
2019-02-12T07:03:23.268Z,63.55
2019-02-12T07:06:03.510Z,62.90
2019-02-12T07:09:05.555Z,63.30
2019-02-12T07:12:12.389Z,62.57
2019-02-12T07:15:05.763Z,62.42
2019-02-12T07:17:49.851Z,62.24
2019-02-12T07:20:55.465Z,61.52
2019-02-12T07:24:11.931Z,61.99
2019-02-12T07:27:28.205Z,61.80
2019-02-12T07:30:20.404Z,61.11
2019-02-12T07:33:19.588Z,62.07
2019-02-12T07:36:26.418Z,61.42
2019-02-12T07:39:25.478Z,61.83
2019-02-12T07:42:54.693Z,62.08
2019-02-12T07:46:11.777Z,61.87
2019-02-12T07:49:22.343Z,61.71
2019-02-12T07:52:29.741Z,62.29
2019-02-12T07:55:27.347Z,61.41
2019-02-12T07:58:33.383Z,60.63
2019-02-12T08:01:50.932Z,61.13
2019-02-12T08:04:51.850Z,60.86
2019-02-12T08:07:56.161Z,60.80
2019-02-12T08:10:49.722Z,60.86
2019-02-12T08:14:08.104Z,61.65
2019-02-12T08:17:25.231Z,61.76
2019-02-12T08:20:43.684Z,62.36
2019-02-12T08:23:54.415Z,62.05
2019-02-12T08:26:38.239Z,61.14
2019-02-12T08:29:48.568Z,61.32
2019-02-12T08:32:30.508Z,60.30
2019-02-12T08:35:34.079Z,60.32
2019-02-12T08:38:24.208Z,59.69
2019-02-12T08:41:26.826Z,60.08
2019-02-12T08:44:35.686Z,59.84
2019-02-12T08:47:52.984Z,59.84
2019-02-12T08:51:02.169Z,60.30
2019-02-12T08:54:04.076Z,60.05
2019-02-12T08:56:49.744Z,58.81
2019-02-12T08:59:48.974Z,58.53
2019-02-12T09:02:47.630Z,57.98
2019-02-12T09:05:43.294Z,59.04
2019-02-12T09:09:00.665Z,57.98
2019-02-12T09:12:11.377Z,58.33
2019-02-12T09:15:11.285Z,56.40
2019-02-12T09:18:06.637Z,57.57
2019-02-12T09:21:24.067Z,57.09
2019-02-12T09:24:44.574Z,57.85
2019-02-12T09:28:05.470Z,57.04
2019-02-12T09:30:57.770Z,56.46
2019-02-12T09:33:54.434Z,56.10
2019-02-12T09:36:54.834Z,57.08
2019-02-12T09:39:58.173Z,56.51
2019-02-12T09:43:08.507Z,58.26
2019-02-12T09:46:18.733Z,57.41
2019-02-12T09:49:25.114Z,56.89
2019-02-12T09:52:26.332Z,56.14
2019-02-12T09:55:30.787Z,56.52
2019-02-12T09:58:41.812Z,54.28
2019-02-12T10:01:21.854Z,54.24
2019-02-12T10:04:14.072Z,54.26
2019-02-12T10:07:02.390Z,55.15
2019-02-12T10:10:12.781Z,55.08
2019-02-12T10:13:13.431Z,55.01
2019-02-12T10:16:29.853Z,55.60
2019-02-12T10:19:24.041Z,54.92
2019-02-12T10:22:32.075Z,54.18
2019-02-12T10:25:25.424Z,54.38
2019-02-12T10:28:38.522Z,54.93
2019-02-12T10:31:19.272Z,56.06
2019-02-12T10:33:49.938Z,55.10
2019-02-12T10:36:20.230Z,56.42
2019-02-12T10:38:50.720Z,57.65
2019-02-12T10:41:21.340Z,57.03
2019-02-12T10:43:51.651Z,56.08
2019-02-12T10:46:21.937Z,56.75
2019-02-12T10:48:52.878Z,58.04
2019-02-12T10:51:23.313Z,57.10
2019-02-12T10:53:53.836Z,56.42
2019-02-12T10:56:24.116Z,56.96
2019-02-12T10:58:54.625Z,55.46
2019-02-12T11:01:25.291Z,55.65
2019-02-12T11:03:56.645Z,55.75
2019-02-12T11:06:26.934Z,56.23
2019-02-12T11:08:57.771Z,56.95
2019-02-12T11:11:28.317Z,55.73
2019-02-12T11:13:58.660Z,55.49
2019-02-12T11:16:29.403Z,56.32
2019-02-12T11:18:59.923Z,57.27
2019-02-12T11:21:30.304Z,55.99
2019-02-12T11:24:01.058Z,56.84
2019-02-12T11:26:31.341Z,55.67
2019-02-12T11:29:02.078Z,55.02
2019-02-12T11:31:32.523Z,56.12
2019-02-12T11:34:03.065Z,55.73
2019-02-12T11:36:33.735Z,55.88
2019-02-12T11:39:04.997Z,55.87
2019-02-12T11:41:36.144Z,56.87
2019-02-12T11:44:07.129Z,56.36
2019-02-12T11:46:37.593Z,55.71
2019-02-12T11:49:08.108Z,56.70
2019-02-12T11:51:38.457Z,57.70
2019-02-12T11:54:09.016Z,56.49
2019-02-12T11:56:39.285Z,55.47
2019-02-12T11:59:10.001Z,56.03
2019-02-12T12:01:40.519Z,56.30
2019-02-12T12:04:11.262Z,57.39
2019-02-12T12:06:41.848Z,57.46
2019-02-12T12:09:12.428Z,57.23
2019-02-12T12:11:42.983Z,58.08
2019-02-12T12:14:13.711Z,57.86
2019-02-12T12:16:43.988Z,56.86
2019-02-12T12:19:14.543Z,57.74
2019-02-12T12:21:45.577Z,57.35
2019-02-12T12:24:15.871Z,56.69
2019-02-12T12:26:46.135Z,56.65
2019-02-12T12:29:16.815Z,56.81
2019-02-12T12:31:47.344Z,57.58
2019-02-12T12:34:18.279Z,57.91
2019-02-12T12:36:48.561Z,57.58
2019-02-12T12:39:19.073Z,57.52
2019-02-12T12:41:49.828Z,57.75
2019-02-12T12:44:20.306Z,58.29
2019-02-12T12:46:50.576Z,58.82
2019-02-12T12:49:21.387Z,58.75
2019-02-12T12:51:51.719Z,58.55
2019-02-12T12:54:22.095Z,56.14
2019-02-12T12:56:52.732Z,56.92
2019-02-12T12:59:23.451Z,58.18
2019-02-12T13:01:53.806Z,57.92
2019-02-12T13:04:24.401Z,56.94
2019-02-12T13:06:54.664Z,57.03
2019-02-12T13:09:25.547Z,56.56
2019-02-12T13:11:55.823Z,56.70
2019-02-12T13:14:26.154Z,57.57
2019-02-12T13:16:56.523Z,57.74
2019-02-12T13:19:27.358Z,57.47
2019-02-12T13:21:57.622Z,57.96
2019-02-12T13:24:28.257Z,58.25
2019-02-12T13:26:58.783Z,58.04
2019-02-12T13:29:30.722Z,58.85
2019-02-12T13:32:01.087Z,57.95
2019-02-12T13:34:31.408Z,58.33
2019-02-12T13:37:03.173Z,58.78
2019-02-12T13:39:34.859Z,58.74
2019-02-12T13:42:05.133Z,58.51
2019-02-12T13:44:35.523Z,57.55
2019-02-12T13:47:06.304Z,57.97
2019-02-12T13:49:36.809Z,57.61
2019-02-12T13:52:07.276Z,58.08
2019-02-12T13:54:37.984Z,57.66
2019-02-12T13:57:08.241Z,57.60
2019-02-12T13:59:38.572Z,57.86
2019-02-12T14:02:09.277Z,58.06
2019-02-12T14:04:39.575Z,57.77
2019-02-12T14:07:10.219Z,58.44
2019-02-12T14:09:40.599Z,58.87
2019-02-12T14:12:11.924Z,58.99
2019-02-12T14:14:42.446Z,58.71
2019-02-12T14:17:12.733Z,58.96
2019-02-12T14:19:43.068Z,58.48
2019-02-12T14:22:13.615Z,58.35
2019-02-12T14:24:43.937Z,57.62
2019-02-12T14:27:14.221Z,58.04
2019-02-12T14:29:44.610Z,58.01
2019-02-12T14:32:15.067Z,58.06
2019-02-12T14:34:45.634Z,57.72
2019-02-12T14:37:16.341Z,57.69
2019-02-12T14:39:46.876Z,57.86
2019-02-12T14:42:17.125Z,58.19
2019-02-12T14:44:47.680Z,57.76
2019-02-12T14:47:18.310Z,57.40
2019-02-12T14:49:48.899Z,57.93
2019-02-12T14:52:19.372Z,58.39
2019-02-12T14:54:49.827Z,58.59
2019-02-12T14:57:20.153Z,58.23
2019-02-12T14:59:50.428Z,59.24
2019-02-12T15:02:21.205Z,59.27
2019-02-12T15:04:51.575Z,58.78
2019-02-12T15:07:21.873Z,58.49
2019-02-12T15:09:52.759Z,58.55
2019-02-12T15:12:23.322Z,58.49
2019-02-12T15:14:53.983Z,58.87
2019-02-12T15:17:24.255Z,58.49
2019-02-12T15:19:54.751Z,59.68
2019-02-12T15:22:25.429Z,60.39
2019-02-12T15:24:55.714Z,60.25
2019-02-12T15:27:25.969Z,60.15
2019-02-12T15:29:56.530Z,59.93
2019-02-12T15:32:26.968Z,60.31
2019-02-12T15:34:57.302Z,59.69
2019-02-12T15:37:28.041Z,60.16
2019-02-12T15:39:58.424Z,60.44
2019-02-12T15:42:28.853Z,60.28
2019-02-12T15:44:59.488Z,60.74
2019-02-12T15:47:29.777Z,60.55
2019-02-12T15:50:00.361Z,60.49
2019-02-12T15:52:30.889Z,60.29
2019-02-12T15:55:01.349Z,60.46
2019-02-12T15:57:32.107Z,60.71
2019-02-12T16:00:03.035Z,60.27
2019-02-12T16:02:34.451Z,60.88
2019-02-12T16:05:08.418Z,61.00
2019-02-12T16:07:38.847Z,60.88
2019-02-12T16:10:11.766Z,61.28
2019-02-12T16:12:42.065Z,61.32
2019-02-12T16:15:14.440Z,61.64
2019-02-12T16:17:45.118Z,61.10
2019-02-12T16:20:15.920Z,61.34
2019-02-12T16:22:46.191Z,61.26
2019-02-12T16:25:16.902Z,61.31
2019-02-12T16:27:47.384Z,61.21
2019-02-12T16:30:17.791Z,61.37
2019-02-12T16:32:48.243Z,61.28
2019-02-12T16:35:19.257Z,60.49
2019-02-12T16:37:49.514Z,60.49
2019-02-12T16:40:19.897Z,60.82
2019-02-12T16:42:51.593Z,60.29
2019-02-12T16:45:26.221Z,60.33
2019-02-12T16:47:56.719Z,60.24
2019-02-12T16:50:27.034Z,59.83
2019-02-12T16:52:59.018Z,60.65
2019-02-12T16:55:29.816Z,60.72
2019-02-12T16:58:00.081Z,61.00
2019-02-12T17:00:30.384Z,60.92
2019-02-12T17:03:01.058Z,60.85
2019-02-12T17:05:32.488Z,61.06
2019-02-12T17:08:02.748Z,61.48
2019-02-12T17:10:33.141Z,61.46
2019-02-12T17:13:03.677Z,60.73
2019-02-12T17:15:34.060Z,60.89
2019-02-12T17:18:05.769Z,61.45
2019-02-12T17:20:36.492Z,61.47
2019-02-12T17:23:07.094Z,61.82
2019-02-12T17:25:37.520Z,61.41
2019-02-12T17:28:07.780Z,61.92
2019-02-12T17:30:38.426Z,61.92
2019-02-12T17:33:08.735Z,62.22
2019-02-12T17:35:39.198Z,61.76
2019-02-12T17:38:09.816Z,62.29
2019-02-12T17:40:41.251Z,62.37
2019-02-12T17:43:11.658Z,62.18
2019-02-12T17:45:42.481Z,62.35
2019-02-12T17:48:13.066Z,63.05
2019-02-12T17:50:43.528Z,62.71
2019-02-12T17:53:14.128Z,63.23
2019-02-12T17:55:44.428Z,63.39
2019-02-12T17:58:15.104Z,62.59
2019-02-12T18:00:46.348Z,63.31
2019-02-12T18:03:16.604Z,62.69
2019-02-12T18:05:47.311Z,62.43
2019-02-12T18:08:19.281Z,62.29
2019-02-12T18:10:49.731Z,61.71
2019-02-12T18:13:20.098Z,62.90
2019-02-12T18:15:50.829Z,62.77
2019-02-12T18:18:21.091Z,62.27
2019-02-12T18:20:51.495Z,62.15
2019-02-12T18:23:21.979Z,62.10
2019-02-12T18:25:52.607Z,62.29
2019-02-12T18:28:23.410Z,62.13
2019-02-12T18:30:53.685Z,62.16
2019-02-12T18:33:24.166Z,62.57
2019-02-12T18:35:54.508Z,62.45
2019-02-12T18:38:24.941Z,62.69
2019-02-12T18:40:55.242Z,62.04
2019-02-12T18:43:25.930Z,62.93
2019-02-12T18:45:56.235Z,63.01
2019-02-12T18:48:26.556Z,62.75
2019-02-12T18:50:57.350Z,62.60
2019-02-12T18:53:29.008Z,62.68
2019-02-12T18:55:59.369Z,62.70
2019-02-12T18:58:30.010Z,62.74
2019-02-12T19:01:01.577Z,63.57
2019-02-12T19:03:31.837Z,63.74
2019-02-12T19:06:02.672Z,63.74
2019-02-12T19:08:33.033Z,63.80
2019-02-12T19:11:03.405Z,63.52
2019-02-12T19:13:33.676Z,63.39
2019-02-12T19:16:04.488Z,63.48
2019-02-12T19:18:34.747Z,63.45
2019-02-12T19:21:05.340Z,63.06
2019-02-12T19:23:35.860Z,63.37
2019-02-12T19:26:06.184Z,63.71
2019-02-12T19:28:36.699Z,64.07
2019-02-12T19:31:07.207Z,64.63
2019-02-12T19:33:37.545Z,64.98
2019-02-12T19:36:08.171Z,64.96
2019-02-12T19:38:38.419Z,64.79
2019-02-12T19:41:08.718Z,64.58
2019-02-12T19:43:39.346Z,64.88
2019-02-12T19:46:09.717Z,65.01
2019-02-12T19:48:39.971Z,65.47
2019-02-12T19:51:10.675Z,65.76
2019-02-12T19:53:41.113Z,65.52
2019-02-12T19:56:11.573Z,65.88
2019-02-12T19:58:42.235Z,65.57
2019-02-12T20:01:12.568Z,65.34
2019-02-12T20:03:43.141Z,65.63
2019-02-12T20:06:13.431Z,65.67
2019-02-12T20:08:43.672Z,66.63
2019-02-12T20:11:14.422Z,66.83
2019-02-12T20:13:44.976Z,66.51
2019-02-12T20:16:15.286Z,66.27
2019-02-12T20:18:45.959Z,66.18
2019-02-12T20:21:16.622Z,65.95
2019-02-12T20:23:46.888Z,66.42
2019-02-12T20:26:17.731Z,66.91
2019-02-12T20:28:48.474Z,66.56
2019-02-12T20:31:18.993Z,66.15
2019-02-12T20:33:56.793Z,66.09
2019-02-12T20:36:21.554Z,65.88
2019-02-12T20:38:51.991Z,65.39
2019-02-12T20:41:23.791Z,65.34
2019-02-12T20:43:54.062Z,65.01
2019-02-12T20:46:25.731Z,65.29
2019-02-12T20:48:56.421Z,65.02
2019-02-12T20:51:26.911Z,64.90
2019-02-12T20:53:57.331Z,65.24
2019-02-12T20:56:28.037Z,65.54
2019-02-12T20:58:58.318Z,66.05
2019-02-12T21:01:28.625Z,66.27
2019-02-12T21:03:59.293Z,65.71
2019-02-12T21:06:30.823Z,66.26
2019-02-12T21:09:01.164Z,66.08
2019-02-12T21:11:32.863Z,66.37
2019-02-12T21:14:03.405Z,67.15
2019-02-12T21:16:33.808Z,66.69
2019-02-12T21:19:04.589Z,67.88
2019-02-12T21:21:35.418Z,68.66
2019-02-12T21:24:05.672Z,67.92
2019-02-12T21:26:36.351Z,67.97
2019-02-12T21:29:06.855Z,68.79
2019-02-12T21:31:37.154Z,68.31
2019-02-12T21:34:07.592Z,68.28
2019-02-12T21:36:37.882Z,68.08
2019-02-12T21:39:10.526Z,68.29
2019-02-12T21:41:41.153Z,68.01
2019-02-12T21:44:11.429Z,67.51
2019-02-12T21:46:43.285Z,67.50
2019-02-12T21:49:13.940Z,67.75
2019-02-12T21:51:44.304Z,68.78
2019-02-12T21:54:14.688Z,68.69
2019-02-12T21:56:45.381Z,68.02
2019-02-12T21:59:15.697Z,67.43
2019-02-12T22:01:46.062Z,66.70
2019-02-12T22:04:16.723Z,65.74
2019-02-12T22:06:47.046Z,65.57
2019-02-12T22:09:17.675Z,64.87
2019-02-12T22:11:48.271Z,65.28
2019-02-12T22:14:18.680Z,65.34
2019-02-12T22:16:49.294Z,65.61
2019-02-12T22:19:19.547Z,65.80
2019-02-12T22:21:50.080Z,65.31
2019-02-12T22:24:20.746Z,65.92
2019-02-12T22:26:51.166Z,65.10
2019-02-12T22:29:21.435Z,64.73
2019-02-12T22:31:51.916Z,64.69
2019-02-12T22:34:22.212Z,64.91
2019-02-12T22:36:52.853Z,64.78
2019-02-12T22:39:23.526Z,64.26
2019-02-12T22:41:54.013Z,63.81
2019-02-12T22:44:24.682Z,63.32
2019-02-12T22:46:55.273Z,63.73
2019-02-12T22:49:25.556Z,63.70
2019-02-12T22:51:56.089Z,63.77
2019-02-12T22:54:28.368Z,63.81
2019-02-12T22:56:58.775Z,63.89
2019-02-12T22:59:31.496Z,63.35
2019-02-12T23:02:01.889Z,63.47
2019-02-12T23:04:32.127Z,63.46
2019-02-12T23:07:02.847Z,63.01
2019-02-12T23:09:33.569Z,63.08
2019-02-12T23:12:03.978Z,62.87
2019-02-12T23:14:34.324Z,63.03
2019-02-12T23:17:04.880Z,62.61
2019-02-12T23:19:35.174Z,62.66
2019-02-12T23:22:05.565Z,63.12
2019-02-12T23:24:36.228Z,62.72
2019-02-12T23:27:06.572Z,63.16
2019-02-12T23:29:36.856Z,63.89
2019-02-12T23:32:07.796Z,64.50
2019-02-12T23:34:38.304Z,64.68
2019-02-12T23:37:09.179Z,63.12
2019-02-12T23:39:39.922Z,63.59
2019-02-12T23:42:10.683Z,64.07
2019-02-12T23:44:41.087Z,64.52
2019-02-12T23:47:11.403Z,64.67
2019-02-12T23:49:41.674Z,65.69
2019-02-12T23:52:12.206Z,66.05
2019-02-12T23:54:42.645Z,66.25
2019-02-12T23:57:12.950Z,66.24
2019-02-12T23:59:43.667Z,66.71
